Time;durP1;ratioP1;P1;durP2;ratioP2;P2;SDS_P1;SDS_P2;PMS_P1;PMS_P2;Temp;Humidity;BMP_temperature;BMP_pressure;BME280_temperature;BME280_humidity;BME280_pressure;Samples;Min_cycle;Max_cycle;Signal;HPM_P1;HPM_P2
2022/06/11 00:00:24;;;;;;;10.93;5.55;;;;;;;16.72;96.45;101999.84;5098426;28;20020;-59
2022/06/11 00:02:50;;;;;;;7.00;5.00;;;;;;;16.69;96.87;101999.91;5098302;28;20042;-59
2022/06/11 00:05:15;;;;;;;8.32;5.28;;;;;;;16.67;96.36;101999.94;5098144;28;20035;-59
2022/06/11 00:07:41;;;;;;;8.80;4.97;;;;;;;16.69;96.33;101997.28;5097981;28;20038;-60
2022/06/11 00:10:08;;;;;;;8.75;4.70;;;;;;;16.68;96.06;102003.47;5098135;28;20366;-59
2022/06/11 00:12:33;;;;;;;7.80;4.82;;;;;;;16.67;96.07;101996.44;5097988;28;20085;-58
2022/06/11 00:14:59;;;;;;;6.25;5.03;;;;;;;16.65;96.90;101998.22;5097812;28;20036;-58
2022/06/11 00:17:25;;;;;;;7.00;4.63;;;;;;;16.62;96.39;101993.00;5097823;28;20106;-59
2022/06/11 00:19:52;;;;;;;7.18;5.22;;;;;;;16.66;95.96;101997.31;5097678;28;20054;-57
2022/06/11 00:22:20;;;;;;;8.23;4.70;;;;;;;16.64;96.06;101996.47;5098135;28;20028;-58
2022/06/11 00:24:45;;;;;;;6.90;4.65;;;;;;;16.54;96.76;101998.41;5097593;28;20055;-57
2022/06/11 00:27:12;;;;;;;7.97;4.38;;;;;;;16.56;97.15;101987.81;5096466;28;20415;-58
2022/06/11 00:29:39;;;;;;;7.60;4.55;;;;;;;16.54;97.04;101994.91;5097761;28;20085;-58
2022/06/11 00:32:06;;;;;;;8.27;4.43;;;;;;;16.47;97.49;101990.63;5097753;28;20089;-58
2022/06/11 00:34:32;;;;;;;7.25;4.65;;;;;;;16.49;96.73;101991.47;5097550;28;20400;-58
2022/06/11 00:36:58;;;;;;;6.70;4.88;;;;;;;16.44;96.93;101996.00;5097822;28;20119;-58
2022/06/11 00:39:28;;;;;;;5.68;4.28;;;;;;;16.33;97.81;101996.19;5097282;28;20475;-59
2022/06/11 00:41:58;;;;;;;7.88;4.72;;;;;;;16.40;97.59;101992.53;5097345;28;20415;-58
2022/06/11 00:44:24;;;;;;;8.38;5.00;;;;;;;16.30;98.22;101988.31;5097577;28;20059;-58
2022/06/11 00:47:12;;;;;;;5.70;4.43;;;;;;;16.30;97.76;101988.31;5097389;28;20035;-57
2022/06/11 00:49:57;;;;;;;6.13;4.60;;;;;;;16.25;97.48;101980.50;5097232;28;20068;-57
2022/06/11 00:52:29;;;;;;;8.52;5.93;;;;;;;16.22;98.18;101988.47;5097455;28;20103;-58
2022/06/11 00:55:00;;;;;;;6.55;5.05;;;;;;;16.23;98.21;101984.94;5097196;28;20379;-58
2022/06/11 00:57:30;;;;;;;8.50;5.20;;;;;;;16.12;99.11;101980.72;5097323;28;20024;-58
2022/06/11 01:00:02;;;;;;;7.53;5.15;;;;;;;16.10;98.95;101980.78;5097053;28;20093;-58
2022/06/11 01:02:28;;;;;;;10.57;5.75;;;;;;;16.13;98.78;101988.63;5096887;28;20402;-59
2022/06/11 01:04:58;;;;;;;8.52;5.70;;;;;;;16.12;98.57;101981.59;5096945;28;20056;-58
2022/06/11 01:08:10;;;;;;;8.98;5.30;;;;;;;16.17;97.73;101986.78;5096845;28;20024;-58
2022/06/11 01:11:08;;;;;;;9.57;6.05;;;;;;;16.12;98.50;101986.00;5097058;28;20043;-60
2022/06/11 01:13:54;;;;;;;10.18;6.18;;;;;;;16.14;98.01;101979.81;5096817;28;20457;-59
2022/06/11 01:16:35;;;;;;;9.25;6.47;;;;;;;16.12;98.08;101981.59;5096648;28;20185;-60
2022/06/11 01:19:12;;;;;;;7.25;5.82;;;;;;;16.08;98.93;101977.28;5096586;28;20062;-60
2022/06/11 01:22:34;;;;;;;8.38;5.85;;;;;;;16.10;98.11;101980.78;5096715;28;20100;-59
2022/06/11 01:25:28;;;;;;;8.15;5.63;;;;;;;15.91;99.03;101960.88;4994919;28;20046;-58
2022/06/11 01:27:59;;;;;;;9.05;6.63;;;;;;;16.04;99.36;101972.09;5096304;28;20441;-58
2022/06/11 01:30:33;;;;;;;12.52;7.05;;;;;;;15.98;99.90;101979.22;5096655;28;20339;-59
2022/06/11 01:33:15;;;;;;;11.05;6.43;;;;;;;16.00;99.26;101979.19;5096225;28;20027;-58
2022/06/11 01:36:24;;;;;;;10.55;6.50;;;;;;;15.97;99.21;101971.31;5096358;28;20055;-59
2022/06/11 01:38:58;;;;;;;10.10;6.07;;;;;;;15.95;99.75;101970.47;5047909;28;20134;-58
2022/06/11 01:41:26;;;;;;;10.30;6.60;;;;;;;15.89;100.00;101954.75;5096151;28;20024;-58
2022/06/11 01:43:57;;;;;;;8.43;5.75;;;;;;;15.95;99.84;101970.47;5096068;28;20035;-58
2022/06/11 01:46:26;;;;;;;7.47;5.90;;;;;;;15.95;99.89;101968.69;5096360;28;20465;-59
2022/06/11 01:49:25;;;;;;;7.90;5.70;;;;;;;15.86;100.00;101962.72;5096112;28;20046;-59
2022/06/11 01:52:09;;;;;;;9.70;5.80;;;;;;;15.84;99.73;101967.16;5095668;28;20078;-59
2022/06/11 01:54:49;;;;;;;8.80;6.03;;;;;;;15.82;100.00;101963.66;5096346;28;20350;-58
2022/06/11 01:57:29;;;;;;;10.38;5.75;;;;;;;15.76;100.00;101969.91;5096051;28;20031;-59
2022/06/11 02:00:11;;;;;;;8.77;5.85;;;;;;;15.79;99.92;101964.56;5095919;28;20411;-58
2022/06/11 02:03:00;;;;;;;10.23;5.70;;;;;;;15.80;100.00;101960.16;5095813;28;20323;-58
2022/06/11 02:05:48;;;;;;;10.05;6.00;;;;;;;15.74;100.00;101970.84;5095858;28;20038;-58
2022/06/11 02:08:37;;;;;;;7.82;5.63;;;;;;;15.73;100.00;101967.34;5095773;28;20039;-59
2022/06/11 02:11:16;;;;;;;8.50;5.63;;;;;;;15.68;100.00;101963.91;5095620;28;20042;-59
2022/06/11 02:14:05;;;;;;;12.63;5.82;;;;;;;15.69;100.00;101965.66;5095551;28;20031;-58
2022/06/11 02:16:48;;;;;;;10.25;6.25;;;;;;;15.69;100.00;101965.66;5095580;28;20023;-57
2022/06/11 02:19:18;;;;;;;7.40;5.50;;;;;;;15.60;100.00;101971.94;5095688;28;20085;-59
2022/06/11 02:21:51;;;;;;;8.82;5.32;;;;;;;15.58;100.00;101973.75;5095591;28;20067;-58
2022/06/11 02:24:25;;;;;;;9.57;4.97;;;;;;;15.54;100.00;101981.69;5095788;28;20313;-58
2022/06/11 02:26:54;;;;;;;7.68;5.40;;;;;;;15.49;100.00;101979.13;5094743;28;20466;-58
2022/06/11 02:29:21;;;;;;;12.48;5.80;;;;;;;15.49;100.00;101979.13;5095629;28;20039;-58
2022/06/11 02:31:51;;;;;;;8.80;5.30;;;;;;;15.50;100.00;101986.13;5095447;28;20032;-58
2022/06/11 02:34:18;;;;;;;9.85;5.72;;;;;;;15.42;100.00;101981.84;5095105;28;20396;-59
2022/06/11 02:36:59;;;;;;;7.80;5.13;;;;;;;15.44;100.00;101985.34;5095332;28;20036;-59
2022/06/11 02:39:26;;;;;;;9.38;5.00;;;;;;;15.38;100.00;101983.69;5095402;28;20410;-60
2022/06/11 02:41:52;;;;;;;8.20;5.07;;;;;;;15.38;100.00;101985.47;5095087;28;20324;-58
2022/06/11 02:44:18;;;;;;;8.98;5.10;;;;;;;15.43;100.00;101988.88;5095160;28;20032;-59
2022/06/11 02:46:44;;;;;;;6.60;4.95;;;;;;;15.31;100.00;101992.59;5095718;28;20032;-60
2022/06/11 02:49:21;;;;;;;10.02;5.25;;;;;;;15.34;100.00;101995.19;5095132;28;20350;-59
2022/06/11 02:51:49;;;;;;;7.90;4.82;;;;;;;15.25;100.00;102004.09;5094878;28;20024;-58
2022/06/11 02:54:16;;;;;;;5.47;4.78;;;;;;;15.25;100.00;102001.44;5095170;28;20399;-60
2022/06/11 02:56:43;;;;;;;10.02;4.93;;;;;;;15.22;100.00;102000.63;5094952;28;20347;-59
2022/06/11 02:59:09;;;;;;;8.38;5.05;;;;;;;15.19;100.00;101998.91;5095377;28;20039;-58
2022/06/11 03:01:34;;;;;;;6.88;5.35;;;;;;;15.25;100.00;101992.66;5094790;28;20028;-58
2022/06/11 03:04:01;;;;;;;8.00;4.88;;;;;;;15.19;100.00;102000.69;5094977;28;20350;-58
2022/06/11 03:06:26;;;;;;;6.78;4.90;;;;;;;15.21;100.00;102005.03;5095421;28;20039;-59
2022/06/11 03:08:55;;;;;;;5.90;4.90;;;;;;;15.22;100.00;102004.16;5094885;28;20020;-58
2022/06/11 03:11:20;;;;;;;7.63;4.90;;;;;;;15.16;100.00;102006.88;5094846;28;20032;-59
2022/06/11 03:13:46;;;;;;;7.97;4.97;;;;;;;15.17;100.00;102005.09;5095025;28;20039;-59
2022/06/11 03:16:12;;;;;;;11.07;4.90;;;;;;;15.22;100.00;102006.78;5094937;28;20184;-60
2022/06/11 03:18:37;;;;;;;8.63;5.28;;;;;;;15.34;100.00;102005.72;5095379;28;20051;-59
2022/06/11 03:21:02;;;;;;;7.10;4.80;;;;;;;15.40;100.00;102010.06;5095034;28;20399;-58
2022/06/11 03:23:29;;;;;;;9.65;4.90;;;;;;;15.42;100.00;102014.38;5095046;28;20046;-58
2022/06/11 03:25:55;;;;;;;7.80;4.97;;;;;;;15.46;100.00;102016.09;5094789;28;20063;-59
2022/06/11 03:28:24;;;;;;;6.95;4.55;;;;;;;15.53;100.00;102019.53;5094780;28;20405;-58
2022/06/11 03:30:50;;;;;;;9.80;4.95;;;;;;;15.55;100.00;102018.66;5094812;28;20028;-58
2022/06/11 03:33:16;;;;;;;8.55;5.05;;;;;;;15.55;100.00;102018.66;5094676;28;20502;-58
2022/06/11 03:35:46;;;;;;;7.88;4.68;;;;;;;15.64;100.00;102025.53;5095040;28;20043;-58
2022/06/11 03:38:12;;;;;;;8.73;5.07;;;;;;;15.61;100.00;102020.28;5094742;28;20335;-59
2022/06/11 03:40:38;;;;;;;6.38;4.70;;;;;;;15.70;100.00;102025.44;5094650;28;20031;-58
2022/06/11 03:43:05;;;;;;;6.03;4.50;;;;;;;15.75;100.00;102033.31;5094606;28;20024;-59
2022/06/11 03:45:30;;;;;;;9.10;5.13;;;;;;;15.66;100.00;102027.25;5094781;28;20043;-58
2022/06/11 03:47:55;;;;;;;6.05;4.95;;;;;;;15.79;100.00;102030.56;5094515;28;20024;-59
2022/06/11 03:50:26;;;;;;;10.63;5.03;;;;;;;15.81;100.00;102043.75;5094971;28;20446;-58
2022/06/11 03:52:51;;;;;;;5.93;5.07;;;;;;;15.83;99.92;102041.94;5094351;28;20107;-58
2022/06/11 03:55:17;;;;;;;6.57;5.00;;;;;;;15.78;100.00;102042.00;5094546;28;20545;-58
2022/06/11 03:57:44;;;;;;;5.13;4.60;;;;;;;15.86;99.89;102049.81;5094875;28;20028;-58
2022/06/11 04:00:12;;;;;;;5.95;4.47;;;;;;;15.93;99.38;102056.78;5094639;28;20032;-58
2022/06/11 04:02:38;;;;;;;5.20;4.57;;;;;;;15.93;99.28;102059.41;5095722;28;20548;-58
2022/06/11 04:05:04;;;;;;;5.88;4.50;;;;;;;15.91;99.22;102054.16;5098024;28;20023;-58
2022/06/11 04:07:31;;;;;;;6.25;4.80;;;;;;;15.95;99.20;102057.59;5097781;28;20036;-57
2022/06/11 04:09:57;;;;;;;7.03;4.90;;;;;;;15.92;99.04;102047.09;5097965;28;20067;-57
2022/06/11 04:12:22;;;;;;;6.47;4.50;;;;;;;16.00;98.77;102058.41;5097993;28;20056;-57
2022/06/11 04:14:49;;;;;;;8.20;4.72;;;;;;;16.04;98.56;102061.84;5097920;28;20339;-58
2022/06/11 04:17:19;;;;;;;7.72;4.63;;;;;;;16.00;99.20;102061.03;5098125;28;20035;-57
2022/06/11 04:19:48;;;;;;;7.22;4.32;;;;;;;16.06;98.76;102065.34;5097754;28;20409;-57
2022/06/11 04:22:14;;;;;;;7.47;4.60;;;;;;;16.08;98.58;102063.56;5097598;28;20114;-58
2022/06/11 04:24:40;;;;;;;7.03;4.40;;;;;;;16.13;98.52;102069.63;5097623;28;20062;-58
2022/06/11 04:27:08;;;;;;;6.20;4.45;;;;;;;16.14;98.42;102068.72;5097395;28;20060;-57
2022/06/11 04:29:37;;;;;;;7.90;4.20;;;;;;;16.17;98.07;102076.59;5097573;28;20032;-57
2022/06/11 04:32:05;;;;;;;7.22;4.20;;;;;;;16.18;97.74;102076.56;5097544;28;20070;-57
2022/06/11 04:34:31;;;;;;;6.53;4.53;;;;;;;16.23;97.21;102072.09;5097665;28;20089;-58
2022/06/11 04:36:57;;;;;;;7.72;4.10;;;;;;;16.22;96.98;102080.03;5097253;28;20385;-57
2022/06/11 04:39:26;;;;;;;7.32;4.40;;;;;;;16.26;98.00;102082.63;5097514;28;20047;-57
2022/06/11 04:41:52;;;;;;;6.70;4.28;;;;;;;16.31;96.45;102080.75;5097348;28;20028;-58
2022/06/11 04:44:18;;;;;;;6.90;4.20;;;;;;;16.28;96.59;102082.56;5097482;28;20036;-57
2022/06/11 04:46:44;;;;;;;4.88;4.05;;;;;;;16.33;96.73;102078.94;5097562;28;20107;-57
2022/06/11 04:49:10;;;;;;;5.95;4.05;;;;;;;16.35;97.03;102079.78;5097320;28;20059;-57
2022/06/11 04:51:36;;;;;;;7.25;4.43;;;;;;;16.35;95.57;102084.22;5097024;28;20028;-59
2022/06/11 04:54:02;;;;;;;5.97;4.30;;;;;;;16.33;95.67;102081.59;5096754;28;20099;-58
2022/06/11 04:56:29;;;;;;;7.65;4.00;;;;;;;16.44;95.70;102085.84;5097104;28;20115;-57
2022/06/11 04:58:55;;;;;;;6.35;4.40;;;;;;;16.48;95.48;102084.84;5097087;28;20410;-58
2022/06/11 05:01:21;;;;;;;7.32;4.20;;;;;;;16.47;94.57;102078.69;5097170;28;20042;-58
2022/06/11 05:03:47;;;;;;;8.30;4.50;;;;;;;16.53;94.29;102083.00;5096866;28;20111;-57
2022/06/11 05:06:16;;;;;;;6.07;4.20;;;;;;;16.65;94.21;102083.69;5097165;28;20028;-58
2022/06/11 05:08:41;;;;;;;6.88;3.92;;;;;;;16.70;93.71;102084.47;5096739;28;20028;-59
2022/06/11 05:11:07;;;;;;;7.25;4.15;;;;;;;16.78;92.03;102091.41;5096650;28;20024;-57
2022/06/11 05:13:33;;;;;;;6.97;4.20;;;;;;;16.87;92.30;102088.56;5096250;28;20434;-59
2022/06/11 05:15:59;;;;;;;10.82;4.70;;;;;;;16.88;91.27;102090.31;5097082;28;20039;-57
2022/06/11 05:18:27;;;;;;;7.40;4.40;;;;;;;16.89;90.96;102082.34;5096512;28;20024;-56
2022/06/11 05:20:52;;;;;;;7.47;4.18;;;;;;;16.86;89.24;102092.09;5094219;28;20035;-58
2022/06/11 05:23:18;;;;;;;9.38;4.35;;;;;;;16.89;90.20;102092.91;5095703;28;20039;-56
2022/06/11 05:25:44;;;;;;;6.75;4.40;;;;;;;16.87;87.26;102092.06;5095865;28;20056;-57
2022/06/11 05:28:16;;;;;;;7.07;4.00;;;;;;;16.85;88.66;102098.28;5096326;28;20020;-57
2022/06/11 05:30:41;;;;;;;;;;;;;;;16.96;89.19;102091.91;5096686;28;20397;-58
2022/06/11 05:33:07;;;;;;;8.77;3.63;;;;;;;16.84;87.02;102094.78;5096346;28;19911;-57
2022/06/11 05:35:35;;;;;;;11.02;3.47;;;;;;;16.89;85.43;102092.06;5096446;28;20066;-57
2022/06/11 05:38:03;;;;;;;6.30;3.35;;;;;;;16.96;85.41;102091.91;5096296;28;20035;-56
2022/06/11 05:40:33;;;;;;;9.25;3.70;;;;;;;16.98;83.66;102095.38;5096286;28;20032;-57
2022/06/11 05:42:58;;;;;;;10.88;3.65;;;;;;;16.95;81.41;102098.09;5096388;28;20334;-56
2022/06/11 05:45:31;;;;;;;8.52;3.47;;;;;;;16.93;83.00;102102.53;5111353;28;20096;-59
2022/06/11 05:47:58;;;;;;;12.02;4.28;;;;;;;16.91;80.10;102101.69;5116363;28;20081;-58
2022/06/11 05:50:29;;;;;;;11.40;3.30;;;;;;;16.95;80.61;102091.94;5113527;28;20032;-58
2022/06/11 05:52:56;;;;;;;11.30;3.05;;;;;;;17.03;78.14;102100.56;5115904;28;20409;-59
2022/06/11 05:55:25;;;;;;;8.90;2.88;;;;;;;17.06;77.49;102103.16;5115911;28;20059;-58
2022/06/11 05:57:52;;;;;;;10.43;3.08;;;;;;;17.17;76.23;102111.75;5116100;28;20030;-58
2022/06/11 06:00:19;;;;;;;13.35;3.63;;;;;;;17.42;77.14;102105.94;5115608;28;20088;-59
2022/06/11 06:02:45;;;;;;;11.43;2.92;;;;;;;17.59;75.98;102103.81;5116216;28;20043;-58
2022/06/11 06:05:16;;;;;;;13.68;2.90;;;;;;;17.66;76.81;102110.75;5116276;28;20036;-59
2022/06/11 06:07:42;;;;;;;10.90;2.88;;;;;;;17.79;75.39;102103.38;5116094;28;20053;-59
2022/06/11 06:10:08;;;;;;;13.05;2.85;;;;;;;17.83;71.92;102105.06;5116242;28;20457;-58
2022/06/11 06:12:34;;;;;;;13.63;3.17;;;;;;;17.74;71.86;102093.75;5116000;28;20028;-59
2022/06/11 06:15:06;;;;;;;11.27;2.72;;;;;;;17.78;72.01;102105.16;5115877;28;20024;-58
2022/06/11 06:17:31;;;;;;;11.60;2.97;;;;;;;17.73;71.72;102115.84;5115816;28;20055;-58
2022/06/11 06:19:56;;;;;;;9.60;2.90;;;;;;;17.66;71.03;102118.69;5115809;28;20304;-58
2022/06/11 06:22:22;;;;;;;13.18;3.25;;;;;;;17.53;72.99;102112.75;5115760;28;20387;-57
2022/06/11 06:24:47;;;;;;;13.50;3.28;;;;;;;17.43;73.08;102120.94;5115025;28;20511;-58
2022/06/11 06:27:13;;;;;;;13.43;3.10;;;;;;;17.49;72.43;102120.81;5115678;28;20047;-58
2022/06/11 06:29:38;;;;;;;14.55;3.10;;;;;;;17.54;71.94;102122.44;5112801;28;20043;-59
2022/06/11 06:32:04;;;;;;;12.18;3.42;;;;;;;17.60;72.09;102121.44;5115817;28;20476;-59
2022/06/11 06:34:29;;;;;;;10.57;3.20;;;;;;;17.78;73.72;102120.19;5115569;28;20099;-58
2022/06/11 06:36:54;;;;;;;10.00;2.80;;;;;;;17.79;71.26;102121.91;5115708;28;20077;-58
2022/06/11 06:39:19;;;;;;;16.75;3.67;;;;;;;17.87;70.43;102135.84;5115792;28;20043;-58
2022/06/11 06:41:45;;;;;;;13.38;3.92;;;;;;;18.02;71.43;102135.47;5115529;28;20092;-58
2022/06/11 06:44:10;;;;;;;10.20;3.25;;;;;;;18.12;70.76;102137.03;5115451;28;20117;-58
2022/06/11 06:46:35;;;;;;;10.95;3.13;;;;;;;17.87;69.71;102101.41;5115678;28;20039;-58
2022/06/11 06:49:01;;;;;;;12.55;3.53;;;;;;;18.07;70.52;102139.78;5115388;28;20028;-58
2022/06/11 06:51:26;;;;;;;15.05;3.95;;;;;;;18.29;71.37;102137.47;5115574;28;20445;-59
2022/06/11 06:53:52;;;;;;;14.48;3.25;;;;;;;18.46;70.37;102131.75;5115033;28;20030;-58
2022/06/11 06:56:17;;;;;;;13.75;3.17;;;;;;;18.53;69.18;102128.00;5115443;28;20031;-58
2022/06/11 06:58:43;;;;;;;16.35;3.53;;;;;;;18.35;69.51;102134.69;5115310;28;20039;-59
2022/06/11 07:01:09;;;;;;;14.00;3.65;;;;;;;18.26;70.23;102134.91;5115515;28;20114;-58
2022/06/11 07:03:34;;;;;;;15.27;3.67;;;;;;;18.33;69.94;102128.56;5108795;28;20059;-58
2022/06/11 07:06:02;;;;;;;15.75;3.78;;;;;;;18.29;70.85;102131.31;5107712;28;20392;-59
2022/06/11 07:08:27;;;;;;;18.50;3.53;;;;;;;18.21;71.68;102125.31;5108170;28;20028;-58
2022/06/11 07:10:54;;;;;;;13.60;3.75;;;;;;;18.15;72.39;102131.66;5096494;28;20073;-59
2022/06/11 07:13:20;;;;;;;16.95;3.88;;;;;;;18.17;70.56;102127.19;5108352;28;20118;-59
2022/06/11 07:15:48;;;;;;;17.90;3.88;;;;;;;18.32;69.35;102125.94;5104146;28;20465;-59
2022/06/11 07:18:19;;;;;;;15.02;4.40;;;;;;;18.61;70.26;102117.25;5106994;28;20035;-58
2022/06/11 07:20:47;;;;;;;14.98;4.00;;;;;;;18.74;69.54;102118.66;5115311;28;20039;-60
2022/06/11 07:23:19;;;;;;;17.38;4.20;;;;;;;18.66;69.97;102123.31;5115094;28;20035;-57
2022/06/11 07:25:47;;;;;;;15.15;3.70;;;;;;;18.58;69.80;102127.91;5115357;28;20142;-58
2022/06/11 07:28:18;;;;;;;16.80;3.63;;;;;;;18.80;70.53;102122.94;5115011;28;20059;-58
2022/06/11 07:30:44;;;;;;;18.55;3.80;;;;;;;18.89;67.93;102134.16;5114747;28;20114;-57
2022/06/11 07:33:17;;;;;;;17.10;3.95;;;;;;;18.95;69.13;102131.34;5114713;28;20039;-58
2022/06/11 07:35:43;;;;;;;14.88;4.05;;;;;;;19.15;69.03;102138.75;5108101;28;20023;-58
2022/06/11 07:38:13;;;;;;;16.63;3.88;;;;;;;19.19;68.27;102137.75;5103421;28;20106;-58
2022/06/11 07:40:40;;;;;;;17.50;3.85;;;;;;;19.20;67.93;102144.81;5098201;28;20096;-58
2022/06/11 07:43:09;;;;;;;13.07;4.05;;;;;;;19.20;68.71;102142.16;5098148;28;20435;-58
2022/06/11 07:45:37;;;;;;;15.10;3.80;;;;;;;19.24;67.54;102143.78;5098182;28;20089;-58
2022/06/11 07:48:03;;;;;;;17.85;4.00;;;;;;;19.51;67.90;102128.00;5106926;28;20076;-57
2022/06/11 07:50:34;;;;;;;21.17;4.28;;;;;;;19.65;66.91;102134.63;5110769;28;20035;-58
2022/06/11 07:53:01;;;;;;;14.63;4.05;;;;;;;19.75;67.63;102138.75;5098177;28;20108;-58
2022/06/11 07:55:27;;;;;;;17.10;4.13;;;;;;;19.86;66.39;102132.25;5098530;28;20035;-58
2022/06/11 07:57:53;;;;;;;16.48;3.85;;;;;;;19.77;66.00;102131.59;5098153;28;20039;-59
2022/06/11 08:00:35;;;;;;;13.60;4.05;;;;;;;19.65;66.61;102133.78;5098379;28;20055;-58
2022/06/11 08:03:01;;;;;;;16.30;4.25;;;;;;;19.55;65.66;102135.84;5098363;28;20032;-58
2022/06/11 08:05:27;;;;;;;11.88;4.05;;;;;;;19.68;67.15;102139.00;5097850;28;20031;-57
2022/06/11 08:07:52;;;;;;;15.65;4.03;;;;;;;19.61;65.58;102135.66;5097111;28;20435;-58
2022/06/11 08:10:21;;;;;;;17.98;3.67;;;;;;;19.55;67.52;102145.59;5097941;28;20042;-59
2022/06/11 08:12:46;;;;;;;20.90;3.95;;;;;;;19.38;67.49;102143.41;5097923;28;20401;-58
2022/06/11 08:15:11;;;;;;;16.02;3.67;;;;;;;19.27;65.47;102154.31;5098219;28;20024;-58
2022/06/11 08:17:38;;;;;;;12.00;3.50;;;;;;;19.29;65.36;102154.28;5098328;28;20032;-57
2022/06/11 08:20:05;;;;;;;15.23;3.65;;;;;;;19.45;66.24;102151.13;5097539;28;20103;-57
2022/06/11 08:22:31;;;;;;;16.90;3.85;;;;;;;19.66;66.85;102154.97;5097925;28;20035;-59
2022/06/11 08:24:58;;;;;;;16.98;4.05;;;;;;;19.57;65.96;102163.19;5097702;28;20028;-58
2022/06/11 08:27:25;;;;;;;17.00;4.00;;;;;;;19.47;64.45;102161.72;5097793;28;20036;-58
2022/06/11 08:29:50;;;;;;;18.30;3.90;;;;;;;19.39;66.90;102150.47;5097834;28;20036;-59
2022/06/11 08:32:16;;;;;;;15.43;3.97;;;;;;;19.35;65.54;102164.72;5097396;28;20047;-60
2022/06/11 08:34:45;;;;;;;15.05;3.88;;;;;;;19.34;66.90;102158.56;5097403;28;20024;-59
2022/06/11 08:37:11;;;;;;;13.68;3.50;;;;;;;19.48;67.13;102155.50;5097806;28;20099;-59
2022/06/11 08:39:37;;;;;;;18.40;4.18;;;;;;;19.49;68.78;102159.88;5097515;28;20111;-58
2022/06/11 08:42:04;;;;;;;17.33;4.78;;;;;;;19.47;66.25;102162.59;5097336;28;20039;-58
2022/06/11 08:44:33;;;;;;;20.05;5.30;;;;;;;19.85;66.13;102155.28;5097267;28;20032;-58
2022/06/11 08:47:03;;;;;;;17.05;4.60;;;;;;;20.19;65.74;102154.22;5096903;28;20032;-58
2022/06/11 08:49:43;;;;;;;17.67;4.45;;;;;;;20.48;65.66;102152.34;5096492;28;20107;-58
2022/06/11 08:52:15;;;;;;;20.30;4.78;;;;;;;20.82;63.77;102156.50;5097199;28;20028;-58
2022/06/11 08:54:43;;;;;;;17.08;3.55;;;;;;;21.03;62.63;102157.53;5097428;28;20056;-58
2022/06/11 08:57:36;;;;;;;15.57;3.38;;;;;;;21.24;59.42;102154.13;5096939;28;20113;-58
2022/06/11 09:00:25;;;;;;;15.07;3.70;;;;;;;21.56;59.57;102152.06;5084480;28;20358;-58
2022/06/11 09:03:25;;;;;;;12.90;3.28;;;;;;;21.70;58.56;102163.03;5099436;28;20100;-59
2022/06/11 09:06:12;;;;;;;13.18;3.78;;;;;;;21.85;59.34;102162.44;5096932;28;20024;-58
2022/06/11 09:08:55;;;;;;;17.02;3.90;;;;;;;21.61;58.80;102158.09;5096888;28;20449;-58
2022/06/11 09:11:42;;;;;;;15.77;3.72;;;;;;;21.98;60.13;102157.50;5096955;28;20034;-58
2022/06/11 09:14:35;;;;;;;15.10;3.20;;;;;;;22.47;56.11;102154.59;5096705;28;20031;-58
2022/06/11 09:17:38;;;;;;;17.50;3.35;;;;;;;22.15;56.29;102160.41;5096767;28;20031;-59
2022/06/11 09:20:37;;;;;;;18.80;3.97;;;;;;;21.90;57.72;102157.81;5041000;28;20068;-59
2022/06/11 09:23:41;;;;;;;14.43;3.92;;;;;;;21.79;58.60;102158.25;5087833;28;20047;-60
2022/06/11 09:26:36;;;;;;;17.27;3.90;;;;;;;21.70;59.75;102160.38;5078939;28;20095;-59
2022/06/11 09:29:12;;;;;;;15.65;4.15;;;;;;;21.60;60.64;102159.88;5103156;28;20031;-59
2022/06/11 09:32:03;;;;;;;13.48;3.35;;;;;;;21.69;58.96;102155.97;5115432;28;20027;-58
2022/06/11 09:34:39;;;;;;;14.57;4.22;;;;;;;21.84;57.93;102166.03;5106927;28;20157;-58
2022/06/11 09:37:11;;;;;;;12.70;4.13;;;;;;;21.83;58.35;102158.97;5106466;28;20036;-58
2022/06/11 09:39:51;;;;;;;15.27;4.25;;;;;;;21.67;57.45;102168.47;5116912;28;20038;-58
2022/06/11 09:42:35;;;;;;;16.52;3.63;;;;;;;21.55;56.91;102156.50;5116198;28;20038;-57
2022/06/11 09:45:03;;;;;;;14.30;3.38;;;;;;;21.64;57.46;102157.97;5106862;28;20116;-58
2022/06/11 09:47:46;;;;;;;19.30;3.45;;;;;;;21.61;58.19;102150.97;5098572;28;20067;-60
2022/06/11 09:50:35;;;;;;;16.30;3.85;;;;;;;21.78;58.52;102156.50;5096311;28;20354;-58
2022/06/11 09:53:15;;;;;;;16.25;4.05;;;;;;;21.84;56.62;102150.91;5096183;28;20035;-58
2022/06/11 09:56:15;;;;;;;16.25;3.65;;;;;;;21.71;58.16;102157.66;5096518;28;20028;-58
2022/06/11 09:58:52;;;;;;;16.48;3.55;;;;;;;21.70;59.25;102157.72;5095916;28;20093;-58
2022/06/11 10:01:23;;;;;;;12.73;3.97;;;;;;;21.95;59.11;102155.84;5095963;28;20044;-60
2022/06/11 10:03:54;;;;;;;17.73;3.85;;;;;;;22.19;58.25;102154.00;5095965;28;20043;-58
2022/06/11 10:06:31;;;;;;;14.07;4.03;;;;;;;22.26;58.38;102146.63;5095776;28;20042;-58
2022/06/11 10:08:59;;;;;;;13.80;3.30;;;;;;;22.43;55.97;102139.66;5095559;28;20051;-58
2022/06/11 10:11:48;;;;;;;13.60;3.80;;;;;;;22.77;56.73;102144.44;5095718;28;20028;-58
2022/06/11 10:14:28;;;;;;;14.13;3.08;;;;;;;22.89;51.07;102133.22;5095920;28;20032;-59
2022/06/11 10:17:23;;;;;;;13.93;2.95;;;;;;;23.07;51.97;102152.00;5096125;28;20054;-58
2022/06/11 10:20:08;;;;;;;9.93;3.13;;;;;;;23.02;53.16;102152.25;5078200;28;20143;-57
2022/06/11 10:22:41;;;;;;;15.50;3.45;;;;;;;22.87;51.09;102151.09;5095503;28;20102;-58
2022/06/11 10:25:18;;;;;;;11.60;3.10;;;;;;;22.72;51.80;102153.53;5095286;28;20114;-59
2022/06/11 10:27:59;;;;;;;11.98;3.08;;;;;;;22.72;53.96;102153.53;5095443;28;20054;-58
2022/06/11 10:30:40;;;;;;;14.68;3.47;;;;;;;22.74;54.62;102154.34;5095602;28;20055;-60
2022/06/11 10:33:20;;;;;;;12.25;2.75;;;;;;;22.73;51.92;102157.94;5095452;28;20062;-59
2022/06/11 10:35:51;;;;;;;11.70;3.08;;;;;;;22.64;51.44;102150.34;5095379;28;20032;-59
2022/06/11 10:38:46;;;;;;;12.88;3.05;;;;;;;22.68;53.15;102154.63;5095210;28;20513;-58
2022/06/11 10:41:37;;;;;;;10.95;2.72;;;;;;;22.80;53.25;102151.44;5073490;28;20056;-58
2022/06/11 10:44:09;;;;;;;14.98;3.65;;;;;;;22.98;51.92;102152.44;5043874;28;20102;-59
2022/06/11 10:46:36;;;;;;;10.70;2.95;;;;;;;23.06;50.11;102156.50;5095393;28;20319;-58
2022/06/11 10:49:02;;;;;;;12.88;2.55;;;;;;;22.92;49.05;102161.56;5094953;28;20039;-58
2022/06/11 10:51:33;;;;;;;13.00;3.28;;;;;;;22.77;52.30;102143.56;5095463;28;20028;-58
2022/06/11 10:54:06;;;;;;;12.82;2.72;;;;;;;22.73;51.20;102141.91;5095201;28;20052;-60
2022/06/11 10:56:57;;;;;;;11.93;3.28;;;;;;;22.81;52.04;102148.72;5095042;28;20040;-57
2022/06/11 10:59:35;;;;;;;12.85;2.80;;;;;;;22.76;50.24;102148.00;5095024;28;20354;-57
2022/06/11 11:02:31;;;;;;;11.90;3.42;;;;;;;22.98;52.21;102142.63;5077314;28;20324;-60
2022/06/11 11:04:59;;;;;;;12.43;3.15;;;;;;;23.08;51.34;102148.41;5094918;28;20140;-59
2022/06/11 11:07:25;;;;;;;12.77;3.00;;;;;;;23.27;51.43;102150.19;5094893;28;20024;-60
2022/06/11 11:09:56;;;;;;;14.65;3.63;;;;;;;23.36;53.14;102142.69;5094917;28;20111;-59
2022/06/11 11:12:25;;;;;;;12.93;3.20;;;;;;;23.45;50.94;102136.91;5097437;28;20028;-59
2022/06/11 11:15:11;;;;;;;9.50;2.85;;;;;;;23.52;50.84;102138.41;5100212;28;20020;-59
2022/06/11 11:17:54;;;;;;;13.93;3.08;;;;;;;23.35;49.42;102140.97;5113340;28;20122;-60
2022/06/11 11:20:34;;;;;;;13.55;3.08;;;;;;;23.11;50.66;102137.59;5117237;28;20035;-58
2022/06/11 11:23:04;;;;;;;14.75;3.83;;;;;;;23.20;50.86;102135.34;5117679;28;20219;-62
2022/06/11 11:25:37;;;;;;;12.70;3.30;;;;;;;23.19;52.91;102140.81;5119468;28;20032;-60
2022/06/11 11:28:04;;;;;;;13.77;3.60;;;;;;;23.05;51.97;102141.41;5118506;28;20039;-59
2022/06/11 11:30:33;;;;;;;14.05;3.80;;;;;;;23.12;52.73;102131.31;5117508;28;20161;-58
2022/06/11 11:33:21;;;;;;;13.73;4.25;;;;;;;23.16;53.31;102130.25;5117555;28;20031;-58
2022/06/11 11:35:46;;;;;;;15.40;4.53;;;;;;;23.15;51.95;102126.72;5111782;28;20032;-53
2022/06/11 11:38:31;;;;;;;18.63;3.70;;;;;;;23.42;54.63;102129.03;5096737;28;20046;-54
2022/06/11 11:41:02;;;;;;;13.77;3.63;;;;;;;23.59;51.16;102129.13;5096987;28;20103;-59